Time;durP1;ratioP1;P1;durP2;ratioP2;P2;SDS_P1;SDS_P2;PMS_P1;PMS_P2;Temp;Humidity;BMP_temperature;BMP_pressure;BME280_temperature;BME280_humidity;BME280_pressure;Samples;Min_cycle;Max_cycle;Signal;HPM_P1;HPM_P2
2021/09/23 00:00:25;;;;;;;58.05;31.27;;;12.90;99.90;;;;;;5028558;28;38498;-81
2021/09/23 00:05:22;;;;;;;52.35;30.30;;;13.00;99.90;;;;;;5028570;28;39615;-79
2021/09/23 00:07:50;;;;;;;45.85;29.35;;;13.10;99.90;;;;;;5029747;28;37329;-81
2021/09/23 00:10:20;;;;;;;49.55;30.85;;;13.00;99.90;;;;;;5041673;28;39238;-79
2021/09/23 00:12:47;;;;;;;49.47;30.05;;;13.00;99.90;;;;;;5030347;28;37568;-78
2021/09/23 00:15:15;;;;;;;52.75;30.85;;;13.00;99.90;;;;;;5032449;28;38887;-79
2021/09/23 00:17:48;;;;;;;51.50;29.92;;;13.00;99.90;;;;;;5033816;28;36541;-79
2021/09/23 00:20:16;;;;;;;55.33;32.40;;;13.00;99.90;;;;;;5029913;28;37935;-80
2021/09/23 00:22:42;;;;;;;50.67;32.63;;;13.10;99.90;;;;;;5039366;28;39381;-80
2021/09/23 00:25:09;;;;;;;52.25;31.77;;;13.20;99.90;;;;;;5031199;28;36578;-82
2021/09/23 00:27:35;;;;;;;45.78;28.98;;;13.20;99.90;;;;;;5034168;28;37589;-79
2021/09/23 00:30:01;;;;;;;48.00;28.30;;;13.20;99.90;;;;;;5031289;28;38479;-79
2021/09/23 00:32:27;;;;;;;52.40;28.92;;;13.20;99.90;;;;;;5044159;28;47058;-80
2021/09/23 00:34:53;;;;;;;45.58;27.85;;;13.10;99.90;;;;;;5043742;28;37759;-80
2021/09/23 00:37:20;;;;;;;42.65;28.10;;;13.00;99.90;;;;;;5043526;28;36649;-80
2021/09/23 00:39:46;;;;;;;39.83;27.63;;;13.00;99.90;;;;;;5041295;28;39327;-81
2021/09/23 00:42:12;;;;;;;47.40;30.15;;;13.00;99.90;;;;;;5034327;28;39197;-80
2021/09/23 00:44:39;;;;;;;46.30;28.25;;;13.00;99.90;;;;;;5038715;28;38319;-80
2021/09/23 00:47:05;;;;;;;46.25;28.20;;;13.00;99.90;;;;;;5032674;28;38280;-80
2021/09/23 00:49:31;;;;;;;50.67;31.23;;;13.00;99.90;;;;;;5037998;28;38970;-80
2021/09/23 00:51:57;;;;;;;53.55;32.00;;;13.00;99.90;;;;;;5028368;28;39713;-80
2021/09/23 00:54:24;;;;;;;55.80;33.30;;;13.00;99.90;;;;;;5036156;28;38568;-80
2021/09/23 00:56:50;;;;;;;50.78;31.73;;;13.00;99.90;;;;;;5031134;28;37947;-80
2021/09/23 00:59:16;;;;;;;44.05;29.25;;;13.00;99.90;;;;;;5034677;28;37444;-80
2021/09/23 01:01:45;;;;;;;61.35;34.70;;;12.90;99.90;;;;;;5037943;28;38233;-80
2021/09/23 01:04:13;;;;;;;48.47;31.42;;;12.90;99.90;;;;;;5035844;28;39126;-80
2021/09/23 01:06:39;;;;;;;56.30;33.00;;;12.80;99.90;;;;;;5027041;28;36928;-80
2021/09/23 01:09:05;;;;;;;55.95;34.53;;;12.80;99.90;;;;;;5029930;28;38734;-80
2021/09/23 01:11:31;;;;;;;57.58;36.67;;;12.70;99.90;;;;;;5035320;28;38000;-80
2021/09/23 01:13:57;;;;;;;55.10;33.10;;;12.70;99.90;;;;;;5033574;28;39933;-80
2021/09/23 01:16:23;;;;;;;51.15;32.38;;;12.60;99.90;;;;;;5031373;28;38345;-80
2021/09/23 01:18:50;;;;;;;53.65;34.35;;;12.60;99.90;;;;;;5031644;28;39854;-80
2021/09/23 01:21:16;;;;;;;68.78;38.78;;;12.60;99.90;;;;;;5033095;28;38501;-80
2021/09/23 01:23:44;;;;;;;54.70;32.28;;;12.60;99.90;;;;;;5031147;28;38678;-80
2021/09/23 01:26:19;;;;;;;67.32;40.45;;;12.50;99.90;;;;;;5030240;28;37485;-80
2021/09/23 01:28:45;;;;;;;62.58;37.88;;;12.50;99.90;;;;;;5028157;28;37759;-80
2021/09/23 01:31:11;;;;;;;66.97;39.25;;;12.40;99.90;;;;;;5050452;28;38977;-79
2021/09/23 01:33:38;;;;;;;61.75;37.60;;;12.40;99.90;;;;;;5041297;28;36546;-79
2021/09/23 01:36:04;;;;;;;69.38;40.20;;;12.30;99.90;;;;;;5034006;28;38066;-80
2021/09/23 01:38:30;;;;;;;68.32;39.63;;;12.30;99.90;;;;;;5034442;28;39540;-80
2021/09/23 01:40:57;;;;;;;56.28;34.42;;;12.30;99.90;;;;;;5038036;28;38988;-80
2021/09/23 01:43:24;;;;;;;59.60;36.83;;;12.20;99.90;;;;;;5040469;28;38198;-80
2021/09/23 01:45:50;;;;;;;48.58;33.42;;;12.20;99.90;;;;;;5033642;28;39291;-80
2021/09/23 01:48:16;;;;;;;53.38;33.80;;;12.10;99.90;;;;;;5033852;28;37820;-80
2021/09/23 01:50:42;;;;;;;64.47;36.97;;;12.10;99.90;;;;;;5035627;28;37754;-80
2021/09/23 01:53:09;;;;;;;62.25;38.15;;;12.00;99.90;;;;;;5031130;28;40024;-80
2021/09/23 01:55:35;;;;;;;56.15;36.05;;;12.00;99.90;;;;;;5037293;28;37054;-80
2021/09/23 01:58:01;;;;;;;58.60;36.03;;;11.90;99.90;;;;;;5035750;28;38689;-80
2021/09/23 02:00:27;;;;;;;52.30;33.63;;;11.90;99.90;;;;;;5041428;28;48802;-79
2021/09/23 02:02:54;;;;;;;43.10;31.02;;;11.90;99.90;;;;;;5042336;28;37653;-80
2021/09/23 02:05:20;;;;;;;49.90;31.88;;;11.90;99.90;;;;;;5042578;28;39050;-79
2021/09/23 02:07:47;;;;;;;53.38;33.25;;;11.80;99.90;;;;;;5037492;28;38294;-80
2021/09/23 02:10:14;;;;;;;51.35;32.75;;;11.80;99.90;;;;;;5039036;28;41982;-80
2021/09/23 02:12:40;;;;;;;58.60;36.05;;;11.90;99.90;;;;;;5040160;28;38188;-80
2021/09/23 02:15:08;;;;;;;48.70;31.88;;;11.90;99.90;;;;;;5031167;28;37508;-80
2021/09/23 02:17:34;;;;;;;52.33;33.42;;;12.00;99.90;;;;;;5033492;28;39649;-79
2021/09/23 02:20:00;;;;;;;51.17;33.50;;;12.20;99.90;;;;;;5030697;28;38247;-79
2021/09/23 02:22:27;;;;;;;59.92;37.03;;;12.30;99.90;;;;;;5032372;28;38561;-80
2021/09/23 02:24:54;;;;;;;46.13;32.50;;;12.40;99.90;;;;;;5032526;28;38258;-80
2021/09/23 02:27:22;;;;;;;67.65;40.20;;;12.40;99.90;;;;;;5035744;28;39085;-80
2021/09/23 02:29:48;;;;;;;68.50;40.92;;;12.60;99.90;;;;;;5033298;28;40110;-80
2021/09/23 02:32:14;;;;;;;57.95;38.10;;;12.60;99.90;;;;;;5032788;28;38770;-79
2021/09/23 02:34:40;;;;;;;62.47;40.45;;;12.60;99.90;;;;;;5029925;28;37051;-80
2021/09/23 02:37:06;;;;;;;71.28;41.90;;;12.60;99.90;;;;;;5033429;28;38327;-79
2021/09/23 02:39:33;;;;;;;72.65;45.85;;;12.60;99.90;;;;;;5038235;28;39528;-80
2021/09/23 02:42:00;;;;;;;80.45;48.97;;;12.60;99.90;;;;;;5038350;28;37350;-80
2021/09/23 02:44:26;;;;;;;73.63;45.03;;;12.70;99.90;;;;;;5037851;28;38042;-80
2021/09/23 02:46:52;;;;;;;83.28;52.67;;;12.90;99.90;;;;;;5028177;28;39391;-80
2021/09/23 02:49:18;;;;;;;96.93;60.13;;;13.00;99.90;;;;;;5029809;28;36893;-80
2021/09/23 02:51:44;;;;;;;101.43;58.05;;;13.20;99.90;;;;;;5040444;28;38213;-79
2021/09/23 02:54:10;;;;;;;103.68;62.97;;;13.30;99.90;;;;;;5034178;28;37628;-79
2021/09/23 02:56:36;;;;;;;91.90;56.88;;;13.30;99.90;;;;;;5035569;28;39160;-80
2021/09/23 02:59:02;;;;;;;90.30;58.63;;;13.40;99.90;;;;;;5036252;28;38911;-79
2021/09/23 03:01:28;;;;;;;100.95;63.03;;;13.50;99.90;;;;;;5027950;28;38714;-80
2021/09/23 03:03:55;;;;;;;100.53;61.80;;;13.50;99.90;;;;;;5034913;28;35572;-80
2021/09/23 03:06:21;;;;;;;106.68;62.28;;;13.60;99.90;;;;;;5031983;28;38905;-80
2021/09/23 03:08:47;;;;;;;102.35;63.33;;;13.60;99.90;;;;;;5036236;28;38083;-79
2021/09/23 03:11:13;;;;;;;103.85;59.83;;;13.70;99.90;;;;;;5033430;28;38778;-78
2021/09/23 03:13:39;;;;;;;95.10;60.95;;;13.70;99.90;;;;;;5039909;28;36508;-78
2021/09/23 03:16:06;;;;;;;109.60;64.50;;;13.70;99.90;;;;;;5032317;28;38082;-80
2021/09/23 03:18:32;;;;;;;95.60;60.15;;;13.70;99.90;;;;;;5038013;28;39300;-79
2021/09/23 03:20:58;;;;;;;114.82;66.28;;;13.70;99.90;;;;;;5035858;28;41893;-80
2021/09/23 03:23:28;;;;;;;108.85;64.72;;;13.70;99.90;;;;;;5036389;28;36185;-80
2021/09/23 03:25:54;;;;;;;125.75;70.95;;;13.70;99.90;;;;;;5037590;28;37771;-80
2021/09/23 03:28:20;;;;;;;121.57;70.07;;;13.70;99.90;;;;;;5030567;28;39197;-80
2021/09/23 03:30:46;;;;;;;107.75;65.38;;;13.70;99.90;;;;;;5036228;28;38797;-80
2021/09/23 03:33:13;;;;;;;114.13;69.75;;;13.70;99.90;;;;;;5039235;28;38360;-79
2021/09/23 03:35:39;;;;;;;104.63;64.78;;;13.70;99.90;;;;;;5031068;28;38468;-80
2021/09/23 03:38:07;;;;;;;118.13;69.45;;;13.80;99.90;;;;;;5028538;28;37814;-80
2021/09/23 03:40:33;;;;;;;102.45;61.28;;;13.70;99.90;;;;;;5028620;28;39946;-80
2021/09/23 03:42:59;;;;;;;128.65;70.63;;;13.80;99.90;;;;;;5031920;28;37572;-79
2021/09/23 03:45:25;;;;;;;100.47;62.60;;;13.70;99.90;;;;;;5031185;28;39039;-80
2021/09/23 03:47:51;;;;;;;129.10;72.25;;;13.70;99.90;;;;;;5033381;28;39642;-80
2021/09/23 03:50:18;;;;;;;104.18;63.92;;;13.70;99.90;;;;;;5031331;28;37167;-80
2021/09/23 03:52:45;;;;;;;106.13;64.20;;;13.80;99.90;;;;;;5032032;28;37535;-79
2021/09/23 03:55:11;;;;;;;138.77;74.40;;;13.80;99.90;;;;;;5035138;28;40893;-79
2021/09/23 03:57:37;;;;;;;112.35;66.13;;;13.80;99.90;;;;;;5033332;28;37314;-79
2021/09/23 04:00:04;;;;;;;106.50;63.75;;;13.80;99.90;;;;;;5037547;28;38848;-80
2021/09/23 04:02:30;;;;;;;112.82;68.25;;;13.90;99.90;;;;;;5043565;28;39693;-80
2021/09/23 04:04:56;;;;;;;121.95;70.57;;;13.90;99.90;;;;;;5032577;28;39196;-80
2021/09/23 04:07:23;;;;;;;107.47;65.22;;;13.90;99.90;;;;;;5029499;28;38444;-80
2021/09/23 04:09:49;;;;;;;134.40;76.20;;;14.00;99.90;;;;;;5033108;28;38452;-80
2021/09/23 04:12:15;;;;;;;131.02;75.85;;;14.00;99.90;;;;;;5032789;28;37498;-80
2021/09/23 04:14:41;;;;;;;122.20;73.88;;;14.10;99.90;;;;;;5032865;28;39704;-79
2021/09/23 04:17:07;;;;;;;125.20;72.20;;;14.10;99.90;;;;;;5029356;28;40462;-79
2021/09/23 04:19:33;;;;;;;127.40;72.70;;;14.20;99.90;;;;;;5033741;28;36652;-80
2021/09/23 04:22:00;;;;;;;118.97;71.20;;;14.20;99.90;;;;;;5030283;28;37157;-80
2021/09/23 04:24:26;;;;;;;117.85;71.80;;;14.20;99.90;;;;;;5038618;28;40164;-80
2021/09/23 04:26:52;;;;;;;121.60;70.90;;;14.20;99.90;;;;;;5029637;28;38035;-79
2021/09/23 04:29:20;;;;;;;142.57;77.32;;;14.20;99.90;;;;;;5026497;28;38093;-79
2021/09/23 04:31:46;;;;;;;121.38;71.93;;;14.30;99.90;;;;;;5031394;28;36927;-79
2021/09/23 04:34:12;;;;;;;119.20;68.20;;;14.30;99.90;;;;;;5026289;28;37978;-79
2021/09/23 04:36:38;;;;;;;114.88;68.32;;;14.30;99.90;;;;;;5033062;28;38318;-79
2021/09/23 04:39:05;;;;;;;131.82;75.22;;;14.30;99.90;;;;;;5034331;28;39237;-79
2021/09/23 04:41:31;;;;;;;120.20;73.13;;;14.40;99.90;;;;;;5046020;28;38714;-80
2021/09/23 04:43:58;;;;;;;141.57;75.80;;;14.40;99.90;;;;;;5040009;28;37344;-79
2021/09/23 04:46:24;;;;;;;103.32;64.80;;;14.40;99.90;;;;;;5035381;28;39016;-79
2021/09/23 04:48:51;;;;;;;102.35;62.38;;;14.30;99.90;;;;;;5037113;28;36990;-79
2021/09/23 04:51:23;;;;;;;98.20;60.97;;;14.30;99.90;;;;;;5030394;28;37389;-80
2021/09/23 04:53:49;;;;;;;129.20;71.70;;;14.30;99.90;;;;;;5031763;28;38908;-79
2021/09/23 04:56:15;;;;;;;115.45;66.25;;;14.30;99.90;;;;;;5033719;28;39161;-79
2021/09/23 04:58:41;;;;;;;96.07;60.65;;;14.30;99.90;;;;;;5032533;28;39653;-79
2021/09/23 05:01:07;;;;;;;139.13;73.57;;;14.30;99.90;;;;;;5037987;28;39265;-79
2021/09/23 05:03:33;;;;;;;113.57;66.15;;;14.30;99.90;;;;;;5037611;28;41884;-79
2021/09/23 05:05:59;;;;;;;115.82;64.35;;;14.30;99.90;;;;;;5034802;28;39019;-79
2021/09/23 05:08:26;;;;;;;104.32;60.15;;;14.20;99.90;;;;;;5032375;28;39007;-79
2021/09/23 05:10:52;;;;;;;94.68;56.97;;;14.20;99.90;;;;;;5029429;28;37201;-80
2021/09/23 05:13:18;;;;;;;112.65;65.45;;;14.30;99.90;;;;;;5048859;28;38889;-79
2021/09/23 05:15:44;;;;;;;128.43;68.85;;;14.30;99.90;;;;;;5027875;28;39685;-79
2021/09/23 05:18:11;;;;;;;138.40;69.18;;;14.30;99.90;;;;;;5030388;28;36649;-79
2021/09/23 05:20:37;;;;;;;115.68;62.13;;;14.30;99.90;;;;;;5032305;28;37587;-79
2021/09/23 05:23:06;;;;;;;107.95;61.92;;;14.30;99.90;;;;;;5033215;28;38427;-78
2021/09/23 05:25:33;;;;;;;125.60;64.32;;;14.30;99.90;;;;;;5029391;28;38353;-79
2021/09/23 05:27:59;;;;;;;100.72;58.28;;;14.20;99.90;;;;;;5032565;28;39147;-79
2021/09/23 05:30:25;;;;;;;110.05;61.85;;;14.30;99.90;;;;;;5026609;28;37168;-79
2021/09/23 05:32:53;;;;;;;98.90;59.17;;;14.30;99.90;;;;;;5027497;28;37979;-79
2021/09/23 05:35:19;;;;;;;112.55;60.15;;;14.30;99.90;;;;;;5030990;28;37561;-79
2021/09/23 05:37:45;;;;;;;102.03;58.30;;;14.30;99.90;;;;;;5031987;28;38190;-79
2021/09/23 05:40:13;;;;;;;136.40;69.57;;;14.20;99.90;;;;;;5022056;28;37391;-79
2021/09/23 05:42:40;;;;;;;143.52;71.40;;;14.30;99.90;;;;;;5025042;28;38654;-79
2021/09/23 05:45:10;;;;;;;101.60;60.70;;;14.20;99.90;;;;;;5024228;28;37789;-78
2021/09/23 05:47:38;;;;;;;103.53;58.10;;;14.20;99.90;;;;;;5037521;28;38243;-79
2021/09/23 05:50:05;;;;;;;101.03;59.38;;;14.20;99.90;;;;;;5033907;28;36509;-78
2021/09/23 05:52:32;;;;;;;153.15;72.28;;;14.20;99.90;;;;;;5033647;28;39693;-79
2021/09/23 05:54:58;;;;;;;146.60;68.80;;;14.20;99.90;;;;;;5031265;28;38628;-80
2021/09/23 05:57:32;;;;;;;88.60;56.45;;;14.20;99.90;;;;;;5031579;28;36996;-79
2021/09/23 05:59:59;;;;;;;108.50;56.60;;;14.20;99.90;;;;;;5036307;28;37547;-80
2021/09/23 06:02:25;;;;;;;96.65;56.92;;;14.20;99.90;;;;;;5033010;28;37612;-79
2021/09/23 06:04:51;;;;;;;95.32;54.70;;;14.20;99.90;;;;;;5029930;28;38136;-80
2021/09/23 06:07:17;;;;;;;110.20;61.03;;;14.40;99.90;;;;;;5024305;28;37657;-79
2021/09/23 06:09:44;;;;;;;83.35;52.58;;;14.50;99.90;;;;;;5022236;28;38477;-78
2021/09/23 06:12:10;;;;;;;113.10;60.05;;;14.60;99.90;;;;;;5032955;28;39973;-78
2021/09/23 06:14:36;;;;;;;100.57;57.20;;;14.70;99.90;;;;;;5034307;28;38609;-77
2021/09/23 06:17:04;;;;;;;98.90;58.55;;;14.70;99.90;;;;;;5024980;28;38252;-77
2021/09/23 06:19:30;;;;;;;91.43;54.40;;;14.80;99.90;;;;;;5033204;28;40581;-78
2021/09/23 06:21:57;;;;;;;94.30;53.38;;;14.80;99.90;;;;;;5032141;28;37790;-77
2021/09/23 06:24:23;;;;;;;80.38;50.13;;;14.80;99.90;;;;;;5036141;28;38596;-78
2021/09/23 06:26:49;;;;;;;80.75;49.20;;;14.80;99.90;;;;;;5032718;28;35684;-78
2021/09/23 06:29:15;;;;;;;93.75;49.85;;;14.90;99.90;;;;;;5034602;28;37545;-78
2021/09/23 06:31:41;;;;;;;86.68;51.50;;;15.00;99.90;;;;;;5031432;28;39579;-78
2021/09/23 06:34:07;;;;;;;79.93;46.67;;;15.00;99.90;;;;;;5032362;28;39311;-78
2021/09/23 06:36:35;;;;;;;73.75;44.85;;;15.00;99.90;;;;;;5033623;28;37399;-78
2021/09/23 06:39:03;;;;;;;64.47;43.67;;;15.10;99.90;;;;;;5036012;28;36316;-78
2021/09/23 06:41:29;;;;;;;70.07;42.88;;;15.10;99.90;;;;;;5032512;28;47280;-78
2021/09/23 06:43:55;;;;;;;72.78;45.40;;;15.20;99.90;;;;;;5040217;28;39747;-79
2021/09/23 06:46:22;;;;;;;65.32;40.15;;;15.30;99.90;;;;;;5059885;28;38430;-79
2021/09/23 06:48:50;;;;;;;57.13;36.85;;;15.30;99.90;;;;;;5034429;28;38162;-78
2021/09/23 06:51:16;;;;;;;62.03;39.15;;;15.30;99.90;;;;;;5032168;28;39539;-79
2021/09/23 06:53:42;;;;;;;53.97;36.92;;;15.40;99.90;;;;;;5029468;28;38476;-78
2021/09/23 06:56:08;;;;;;;54.10;35.25;;;15.40;99.90;;;;;;5040495;28;38864;-79
2021/09/23 06:58:34;;;;;;;58.28;34.97;;;15.50;99.90;;;;;;5043047;28;38486;-78
2021/09/23 07:01:00;;;;;;;52.75;33.00;;;15.60;99.90;;;;;;5045743;28;38886;-79
2021/09/23 07:03:26;;;;;;;55.75;35.22;;;15.60;99.90;;;;;;5040857;28;40758;-78
2021/09/23 07:05:52;;;;;;;50.97;34.33;;;15.60;99.90;;;;;;5038898;28;38453;-78
2021/09/23 07:08:19;;;;;;;46.90;31.13;;;15.60;99.90;;;;;;5028818;28;38038;-78
2021/09/23 07:10:46;;;;;;;49.13;30.13;;;15.50;99.90;;;;;;5046195;28;38879;-78
2021/09/23 07:13:12;;;;;;;50.08;29.88;;;15.60;99.90;;;;;;5036218;28;39741;-78
2021/09/23 07:15:39;;;;;;;46.83;29.65;;;15.50;99.90;;;;;;5040795;28;39971;-79
2021/09/23 07:18:06;;;;;;;41.00;27.60;;;15.60;99.90;;;;;;5033361;28;38074;-79
2021/09/23 07:20:32;;;;;;;49.10;28.48;;;15.70;99.90;;;;;;5036875;28;38627;-79
2021/09/23 07:22:58;;;;;;;41.35;27.05;;;15.70;99.90;;;;;;5041639;28;38493;-79
2021/09/23 07:25:24;;;;;;;38.28;24.55;;;15.70;99.90;;;;;;5034972;28;38598;-78
2021/09/23 07:27:52;;;;;;;37.88;25.23;;;15.70;99.90;;;;;;5043293;28;38888;-78
2021/09/23 07:30:18;;;;;;;37.75;24.35;;;15.80;99.90;;;;;;5032700;28;40850;-79
2021/09/23 07:32:45;;;;;;;36.90;23.30;;;15.90;99.90;;;;;;5031872;28;37770;-78
2021/09/23 07:35:12;;;;;;;33.53;21.85;;;15.90;99.90;;;;;;5032461;28;39340;-78
2021/09/23 07:37:39;;;;;;;30.08;20.42;;;16.00;99.90;;;;;;5038183;28;36284;-79
2021/09/23 07:40:08;;;;;;;30.92;20.80;;;16.10;99.90;;;;;;5037540;28;39048;-77
2021/09/23 07:42:34;;;;;;;30.88;19.00;;;16.20;99.90;;;;;;5041523;28;38427;-78
2021/09/23 07:45:00;;;;;;;26.52;19.35;;;16.40;99.90;;;;;;5032867;28;37984;-79
2021/09/23 07:47:26;;;;;;;31.10;18.33;;;16.40;99.90;;;;;;5024420;28;46717;-80
2021/09/23 07:49:53;;;;;;;25.60;18.15;;;16.50;99.90;;;;;;5041926;28;39448;-80
2021/09/23 07:52:19;;;;;;;28.67;19.60;;;16.50;99.90;;;;;;5032556;28;37250;-80
2021/09/23 07:54:45;;;;;;;34.08;20.58;;;16.60;99.90;;;;;;5038042;28;38767;-80
2021/09/23 07:57:14;;;;;;;25.80;18.10;;;16.60;99.90;;;;;;5037443;28;39423;-80
2021/09/23 07:59:40;;;;;;;30.15;18.45;;;16.70;99.90;;;;;;5034728;28;38838;-80
2021/09/23 08:02:07;;;;;;;33.10;19.50;;;16.70;99.90;;;;;;5031885;28;38102;-81
2021/09/23 08:04:33;;;;;;;32.17;19.33;;;16.70;99.90;;;;;;5033202;28;38292;-80
2021/09/23 08:06:59;;;;;;;26.67;18.70;;;16.70;99.90;;;;;;5036179;28;35628;-81
2021/09/23 08:09:25;;;;;;;29.55;18.23;;;16.70;99.90;;;;;;5040402;28;37767;-80
2021/09/23 08:11:51;;;;;;;27.08;19.02;;;16.80;99.90;;;;;;5032216;28;39242;-80
2021/09/23 08:14:18;;;;;;;23.33;16.23;;;16.70;99.90;;;;;;5037939;28;39134;-80
2021/09/23 08:16:44;;;;;;;30.88;18.58;;;16.80;99.90;;;;;;5035422;28;38693;-81
2021/09/23 08:19:11;;;;;;;29.75;16.58;;;16.90;99.90;;;;;;5025816;28;38829;-80
2021/09/23 08:21:38;;;;;;;22.73;15.00;;;17.00;99.90;;;;;;5036906;28;38404;-80
2021/09/23 08:24:05;;;;;;;17.38;13.07;;;17.10;99.90;;;;;;5035048;28;38698;-80
2021/09/23 08:26:31;;;;;;;17.30;12.23;;;17.20;99.90;;;;;;5038572;28;38179;-81
2021/09/23 08:28:57;;;;;;;20.10;11.18;;;17.20;99.90;;;;;;5043885;28;38751;-80
2021/09/23 08:31:23;;;;;;;17.00;10.63;;;17.20;99.90;;;;;;5038383;28;37559;-80
2021/09/23 08:33:50;;;;;;;14.40;8.05;;;17.20;99.90;;;;;;5037945;28;38273;-80
2021/09/23 08:36:17;;;;;;;9.20;5.28;;;17.20;99.90;;;;;;5036373;28;38220;-80
2021/09/23 08:38:43;;;;;;;10.57;5.05;;;17.40;99.90;;;;;;5042216;28;41105;-81
2021/09/23 08:41:09;;;;;;;9.57;4.03;;;17.60;99.90;;;;;;5043078;28;38497;-80
2021/09/23 08:43:35;;;;;;;13.60;4.25;;;17.70;99.90;;;;;;5042642;28;37391;-80
2021/09/23 08:46:04;;;;;;;10.20;4.18;;;17.60;99.90;;;;;;5048061;28;37912;-80
2021/09/23 08:48:31;;;;;;;8.95;3.33;;;17.60;99.90;;;;;;5048942;28;49211;-80
2021/09/23 08:50:58;;;;;;;7.65;3.60;;;17.70;99.90;;;;;;5046787;28;39224;-80
2021/09/23 08:53:26;;;;;;;12.02;3.70;;;17.70;99.90;;;;;;5046523;28;39257;-80
2021/09/23 08:55:52;;;;;;;7.75;3.60;;;17.80;99.90;;;;;;5043659;28;37425;-81
2021/09/23 08:58:18;;;;;;;10.45;3.15;;;17.70;99.90;;;;;;5043912;28;37574;-81
2021/09/23 09:01:23;;;;;;;10.30;3.20;;;17.80;99.90;;;;;;5055323;28;37222;-80
2021/09/23 09:04:00;;;;;;;8.63;3.22;;;17.80;99.90;;;;;;5043625;28;49973;-81
2021/09/23 09:06:27;;;;;;;13.65;3.15;;;17.80;99.90;;;;;;5048239;28;37222;-80
2021/09/23 09:08:53;;;;;;;12.43;3.80;;;17.90;99.90;;;;;;5043629;28;38362;-80
2021/09/23 09:11:19;;;;;;;10.07;3.33;;;18.00;99.90;;;;;;5041293;28;38467;-80
2021/09/23 09:13:49;;;;;;;10.27;3.15;;;17.90;99.90;;;;;;5036858;28;39558;-81
2021/09/23 09:16:18;;;;;;;5.55;3.10;;;17.80;99.90;;;;;;5042984;28;37094;-80
2021/09/23 09:18:45;;;;;;;8.77;3.53;;;17.80;99.90;;;;;;5046161;28;37397;-80
2021/09/23 09:21:14;;;;;;;9.63;3.13;;;17.60;99.90;;;;;;5040981;28;37314;-80
2021/09/23 09:23:55;;;;;;;5.95;2.70;;;17.70;99.90;;;;;;5041790;28;36616;-80
2021/09/23 09:26:37;;;;;;;5.68;2.90;;;17.80;99.90;;;;;;5033963;28;37239;-80
2021/09/23 09:29:05;;;;;;;8.13;2.78;;;17.90;99.90;;;;;;5046384;28;37684;-79
2021/09/23 09:31:32;;;;;;;6.78;3.33;;;18.00;99.90;;;;;;5033871;28;38406;-80
2021/09/23 09:34:00;;;;;;;8.32;2.72;;;18.20;99.90;;;;;;5038664;28;37864;-80
2021/09/23 09:36:37;;;;;;;5.45;2.67;;;18.20;99.90;;;;;;5040116;28;37961;-81
2021/09/23 09:39:13;;;;;;;7.20;2.80;;;18.40;99.90;;;;;;5038691;28;38617;-80
2021/09/23 09:41:42;;;;;;;6.55;2.90;;;18.60;99.90;;;;;;5039373;28;37567;-80
2021/09/23 09:44:10;;;;;;;7.18;3.20;;;18.60;99.90;;;;;;5042056;28;40035;-81
2021/09/23 09:46:41;;;;;;;11.77;3.85;;;18.70;99.90;;;;;;5040592;28;38222;-81
2021/09/23 09:49:08;;;;;;;9.00;3.42;;;18.70;99.90;;;;;;5036474;28;38719;-81
2021/09/23 09:51:50;;;;;;;6.63;3.15;;;18.50;99.90;;;;;;5035596;28;39710;-80
2021/09/23 09:54:18;;;;;;;9.70;3.25;;;18.40;99.90;;;;;;5028013;28;37642;-80
2021/09/23 09:56:54;;;;;;;8.25;3.47;;;18.30;99.90;;;;;;5028149;28;37923;-80
2021/09/23 09:59:20;;;;;;;8.05;3.10;;;18.20;99.90;;;;;;5036801;28;38320;-82
2021/09/23 10:01:49;;;;;;;10.75;3.42;;;18.10;99.90;;;;;;5038960;28;37708;-80
2021/09/23 10:04:17;;;;;;;5.25;3.10;;;18.00;99.90;;;;;;5029817;28;38123;-81
2021/09/23 10:06:44;;;;;;;8.52;3.42;;;18.10;99.90;;;;;;5039398;28;37307;-81
2021/09/23 10:09:13;;;;;;;10.63;3.63;;;18.10;99.90;;;;;;5037363;28;37720;-80
2021/09/23 10:11:44;;;;;;;7.43;3.13;;;18.00;99.90;;;;;;5038889;28;38955;-81
2021/09/23 10:14:13;;;;;;;8.00;3.15;;;18.00;99.90;;;;;;5040473;28;39063;-81
2021/09/23 10:16:39;;;;;;;11.38;3.55;;;18.10;99.90;;;;;;5041794;28;36930;-81
2021/09/23 10:19:06;;;;;;;5.45;2.90;;;18.10;99.90;;;;;;5040734;28;38304;-81
2021/09/23 10:21:33;;;;;;;7.47;3.13;;;18.10;99.90;;;;;;5036178;28;39058;-81
2021/09/23 10:24:01;;;;;;;7.90;2.25;;;18.10;99.90;;;;;;5044685;28;36903;-81
2021/09/23 10:26:31;;;;;;;7.13;3.05;;;18.00;99.90;;;;;;5042146;28;35988;-81
2021/09/23 10:29:00;;;;;;;7.00;2.60;;;18.20;99.90;;;;;;5043373;28;39367;-80
2021/09/23 10:31:32;;;;;;;6.53;2.22;;;18.40;99.90;;;;;;5032425;28;39370;-81
2021/09/23 10:34:00;;;;;;;10.00;2.83;;;18.80;99.90;;;;;;5038647;28;38393;-80
2021/09/23 10:36:29;;;;;;;5.68;2.10;;;19.00;99.90;;;;;;5041072;28;36484;-81
2021/09/23 10:38:57;;;;;;;4.47;1.88;;;19.10;99.90;;;;;;5039158;28;38653;-81
2021/09/23 10:41:25;;;;;;;7.53;2.08;;;19.20;99.90;;;;;;5027479;28;38471;-79
2021/09/23 10:43:54;;;;;;;5.70;2.13;;;19.40;99.90;;;;;;5056009;28;38628;-79
2021/09/23 10:46:21;;;;;;;8.90;1.70;;;19.40;99.90;;;;;;5039734;28;36925;-78
2021/09/23 10:48:50;;;;;;;6.60;1.75;;;19.00;99.90;;;;;;5043548;28;38995;-81
2021/09/23 10:51:17;;;;;;;5.82;1.55;;;18.80;99.90;;;;;;5044586;28;39769;-81
2021/09/23 10:53:55;;;;;;;6.40;2.00;;;18.60;99.90;;;;;;5043136;28;37344;-81
2021/09/23 10:56:22;;;;;;;8.93;2.47;;;18.80;99.90;;;;;;5040258;28;38003;-82
2021/09/23 10:58:50;;;;;;;6.50;1.67;;;19.10;99.90;;;;;;5046324;28;37803;-79
2021/09/23 11:01:25;;;;;;;8.25;1.73;;;19.50;99.90;;;;;;5051524;28;39397;-79
2021/09/23 11:03:53;;;;;;;4.90;1.23;;;19.50;99.90;;;;;;5048103;28;37271;-79
2021/09/23 11:06:19;;;;;;;6.47;1.48;;;19.40;99.90;;;;;;5038508;28;36528;-79
2021/09/23 11:08:47;;;;;;;4.93;1.50;;;19.40;99.90;;;;;;5041326;28;37632;-78
2021/09/23 11:11:14;;;;;;;7.72;1.63;;;19.40;99.90;;;;;;5029535;28;37586;-78
2021/09/23 11:13:41;;;;;;;7.75;1.40;;;19.50;99.90;;;;;;5039467;28;36892;-79
2021/09/23 11:16:10;;;;;;;5.05;1.60;;;19.90;99.90;;;;;;5037585;28;37943;-80
2021/09/23 11:18:38;;;;;;;4.85;1.50;;;20.20;99.90;;;;;;5037232;28;38530;-79
2021/09/23 11:21:06;;;;;;;6.47;1.50;;;20.10;99.90;;;;;;5034615;28;38496;-79
2021/09/23 11:23:33;;;;;;;4.88;1.30;;;20.20;99.90;;;;;;5039207;28;37762;-78
2021/09/23 11:26:01;;;;;;;8.20;2.22;;;20.30;99.90;;;;;;5043018;28;37091;-79
2021/09/23 11:28:29;;;;;;;5.80;1.55;;;20.50;99.90;;;;;;5043787;28;48600;-80
2021/09/23 11:30:56;;;;;;;6.25;1.30;;;20.60;99.90;;;;;;5042138;28;38612;-79
2021/09/23 11:33:24;;;;;;;6.95;1.77;;;20.50;99.90;;;;;;5041505;28;38770;-80
2021/09/23 11:35:52;;;;;;;12.73;1.75;;;20.60;99.90;;;;;;5042213;28;36583;-79
2021/09/23 11:38:20;;;;;;;7.57;1.73;;;20.80;99.90;;;;;;5042170;28;39802;-81
2021/09/23 11:40:49;;;;;;;7.95;1.42;;;21.00;99.90;;;;;;5042754;28;38925;-79
2021/09/23 11:43:18;;;;;;;9.13;1.83;;;20.70;99.90;;;;;;5045288;28;40304;-79
2021/09/23 11:45:53;;;;;;;4.78;2.00;;;20.90;99.90;;;;;;5040566;28;37487;-78
2021/09/23 11:48:26;;;;;;;6.75;1.80;;;21.20;99.90;;;;;;5040292;28;38884;-78
2021/09/23 11:51:03;;;;;;;7.13;1.75;;;20.80;99.90;;;;;;5047000;28;38328;-79
2021/09/23 11:53:35;;;;;;;5.60;1.88;;;20.60;99.90;;;;;;5040845;28;47490;-79
2021/09/23 11:56:04;;;;;;;8.02;1.83;;;20.50;99.90;;;;;;5038880;28;37535;-78
2021/09/23 11:58:35;;;;;;;7.22;1.95;;;20.30;99.90;;;;;;5033292;28;40959;-79
2021/09/23 12:01:02;;;;;;;5.97;1.45;;;20.10;99.90;;;;;;5025787;28;39922;-79
2021/09/23 12:03:28;;;;;;;8.55;1.90;;;20.10;99.90;;;;;;5033998;28;47055;-79
2021/09/23 12:05:59;;;;;;;6.90;1.80;;;20.00;99.90;;;;;;5033600;28;38390;-79
2021/09/23 12:08:29;;;;;;;5.82;1.60;;;19.70;99.90;;;;;;5054556;28;39575;-79
2021/09/23 12:10:59;;;;;;;4.25;2.33;;;19.50;99.90;;;;;;5042430;28;36701;-79
2021/09/23 12:13:47;;;;;;;7.03;1.85;;;19.50;99.90;;;;;;5027911;28;39602;-80
2021/09/23 12:16:18;;;;;;;5.90;1.95;;;19.50;99.90;;;;;;5032873;28;38029;-79
2021/09/23 12:18:46;;;;;;;5.28;1.90;;;19.40;99.90;;;;;;5039615;28;40711;-79
2021/09/23 12:21:17;;;;;;;7.15;1.80;;;19.40;99.90;;;;;;5045677;28;38528;-79
2021/09/23 12:23:54;;;;;;;9.32;2.20;;;19.40;99.90;;;;;;5045114;28;38362;-79
2021/09/23 12:26:25;;;;;;;7.05;1.88;;;19.40;99.90;;;;;;5042086;28;37806;-79
2021/09/23 12:28:56;;;;;;;7.82;2.15;;;19.20;99.90;;;;;;5042427;28;39687;-79
2021/09/23 12:31:42;;;;;;;8.30;2.28;;;19.20;99.90;;;;;;5027377;28;38039;-79
2021/09/23 12:34:18;;;;;;;9.05;3.45;;;19.10;99.90;;;;;;5027825;28;36769;-78